Terminal Aerodrome Forecast
Issued by NWS

Home | Current Version | Previous Version | Text Only | Print | Product List | Glossary On
Versions: 1 2 3 4 5 6 7 8 9 10 11 12 13 14 15 16 17 18 19 20 21 22 23 24 25 26 27 28 29 30 31 32
000
FTUS41 KBUF 041500 AAA
TAFIAG
TAF AMD
KIAG 041519Z 0415/0512 26015KT P6SM SCT025 SCT150
     FM041800 25010G16KT P6SM BKN030
     FM042200 29009KT P6SM BKN015
     FM050200 32010G16KT P6SM BKN025
     FM050700 31012KT P6SM BKN200=

USA.gov is the U.S. government's official web portal to all federal, state and local government web resources and services.